createdAt,value
2018-07-07T00:01:18.853Z,13.27
2018-07-07T00:03:47.432Z,16.17
2018-07-07T00:06:15.781Z,17.63
2018-07-07T00:08:44.148Z,16.67
2018-07-07T00:11:12.550Z,13.43
2018-07-07T00:13:40.904Z,14.87
2018-07-07T00:16:09.303Z,14.67
2018-07-07T00:18:37.669Z,13.30
2018-07-07T00:21:06.314Z,15.37
2018-07-07T00:23:34.677Z,12.87
2018-07-07T00:26:03.567Z,13.03
2018-07-07T00:28:32.596Z,14.03
2018-07-07T00:31:00.930Z,13.20
2018-07-07T00:33:29.569Z,12.93
2018-07-07T00:35:57.878Z,14.50
2018-07-07T00:38:26.162Z,14.87
2018-07-07T00:40:54.460Z,13.10
2018-07-07T00:43:22.819Z,15.83
2018-07-07T00:45:51.191Z,13.47
2018-07-07T00:48:19.569Z,14.37
2018-07-07T00:50:48.053Z,17.00
2018-07-07T00:53:16.405Z,16.03
2018-07-07T00:55:44.746Z,13.87
2018-07-07T00:58:13.939Z,14.03
2018-07-07T01:00:50.981Z,14.43
2018-07-07T01:03:19.651Z,14.67
2018-07-07T01:05:48.689Z,15.43
2018-07-07T01:08:17.891Z,11.87
2018-07-07T01:10:46.256Z,14.37
2018-07-07T01:13:15.675Z,12.80
2018-07-07T01:15:44.017Z,13.63
2018-07-07T01:18:12.301Z,13.70
2018-07-07T01:20:40.673Z,12.27
2018-07-07T01:23:09.061Z,12.20
2018-07-07T01:25:37.401Z,12.77
2018-07-07T01:28:06.277Z,14.57
2018-07-07T01:30:34.894Z,12.90
2018-07-07T01:33:03.285Z,12.33
2018-07-07T01:35:31.693Z,13.37
2018-07-07T01:38:00.036Z,13.87
2018-07-07T01:40:28.437Z,13.43
2018-07-07T01:42:56.749Z,16.50
2018-07-07T01:45:25.128Z,15.80
2018-07-07T01:47:53.445Z,17.50
2018-07-07T01:50:21.766Z,20.30
2018-07-07T01:52:50.306Z,23.37
2018-07-07T01:55:18.651Z,14.73
2018-07-07T01:57:46.968Z,17.57
2018-07-07T02:00:15.307Z,16.87
2018-07-07T02:02:43.706Z,16.67
2018-07-07T02:05:12.078Z,16.13
2018-07-07T02:07:40.357Z,19.67
2018-07-07T02:10:08.802Z,18.80
2018-07-07T02:12:37.271Z,20.30
2018-07-07T02:15:05.941Z,12.67
2018-07-07T02:17:34.288Z,14.83
2018-07-07T02:20:02.676Z,15.27
2018-07-07T02:22:31.001Z,18.77
2018-07-07T02:24:59.308Z,16.53
2018-07-07T02:27:27.737Z,16.87
2018-07-07T02:29:56.113Z,20.20
2018-07-07T02:32:24.437Z,15.50
2018-07-07T02:34:52.764Z,17.47
2018-07-07T02:37:21.127Z,18.57
2018-07-07T02:39:49.499Z,16.50
2018-07-07T02:42:17.887Z,18.23
2018-07-07T02:44:46.232Z,16.80
2018-07-07T02:47:14.677Z,16.33
2018-07-07T02:49:43.040Z,17.13
2018-07-07T02:52:11.390Z,17.27
2018-07-07T02:54:39.744Z,22.90
2018-07-07T02:57:08.074Z,17.27
2018-07-07T02:59:36.461Z,17.43
2018-07-07T03:02:04.753Z,18.17
2018-07-07T03:04:33.133Z,15.10
2018-07-07T03:07:01.498Z,14.67
2018-07-07T03:09:29.860Z,16.27
2018-07-07T03:11:58.241Z,16.60
2018-07-07T03:14:26.568Z,16.57
2018-07-07T03:16:55.325Z,17.10
2018-07-07T03:19:23.793Z,15.33
2018-07-07T03:21:52.083Z,16.47
2018-07-07T03:24:20.493Z,14.60
2018-07-07T03:26:48.828Z,14.17
2018-07-07T03:29:17.271Z,15.97
2018-07-07T03:31:45.556Z,17.10
2018-07-07T03:34:14.024Z,16.87
2018-07-07T03:36:42.287Z,19.50
2018-07-07T03:39:11.173Z,17.03
2018-07-07T03:41:40.183Z,13.37
2018-07-07T03:44:08.626Z,12.73
2018-07-07T03:46:37.145Z,15.70
2018-07-07T03:49:05.840Z,13.77
2018-07-07T03:51:34.438Z,11.77
2018-07-07T03:54:02.781Z,15.60
2018-07-07T03:56:31.101Z,16.73
2018-07-07T03:58:59.464Z,14.77
2018-07-07T04:01:27.936Z,13.77
2018-07-07T04:03:56.235Z,18.87
2018-07-07T04:06:24.641Z,12.80
2018-07-07T04:08:52.966Z,14.40
2018-07-07T04:11:21.296Z,17.30
2018-07-07T04:13:49.651Z,18.77
2018-07-07T04:16:18.055Z,11.93
2018-07-07T04:18:46.384Z,17.27
2018-07-07T04:21:14.700Z,14.10
2018-07-07T04:23:43.239Z,16.13
2018-07-07T04:26:11.612Z,12.83
2018-07-07T04:28:40.002Z,17.40
2018-07-07T04:31:08.389Z,18.73
2018-07-07T04:33:36.694Z,13.23
2018-07-07T04:36:05.258Z,16.67
2018-07-07T04:38:33.571Z,13.00
2018-07-07T04:41:01.976Z,11.67
2018-07-07T04:43:30.310Z,16.20
2018-07-07T04:45:58.670Z,15.30
2018-07-07T04:48:26.994Z,14.10
2018-07-07T04:50:55.375Z,16.53
2018-07-07T04:53:23.756Z,14.90
2018-07-07T04:55:52.403Z,17.23
2018-07-07T04:58:20.721Z,14.40
2018-07-07T05:00:49.112Z,16.33
2018-07-07T05:03:17.429Z,14.57
2018-07-07T05:05:45.713Z,15.00
2018-07-07T05:08:14.061Z,15.83
2018-07-07T05:10:42.451Z,15.10
2018-07-07T05:13:10.846Z,16.57
2018-07-07T05:15:39.246Z,14.63
2018-07-07T05:18:07.573Z,15.03
2018-07-07T05:20:35.943Z,15.30
2018-07-07T05:23:04.298Z,15.57
2018-07-07T05:25:32.607Z,16.13
2018-07-07T05:28:00.951Z,18.97
2018-07-07T05:30:31.910Z,13.67
2018-07-07T05:33:00.964Z,15.17
2018-07-07T05:35:29.231Z,17.90
2018-07-07T05:37:58.340Z,15.40
2018-07-07T05:40:26.856Z,15.93
2018-07-07T05:42:55.426Z,16.00
2018-07-07T05:45:23.788Z,17.23
2018-07-07T05:47:52.312Z,19.20
2018-07-07T05:50:20.631Z,17.70
2018-07-07T05:52:48.951Z,19.27
2018-07-07T05:55:17.417Z,16.70
2018-07-07T05:57:45.754Z,15.67
2018-07-07T06:00:14.755Z,17.30
2018-07-07T06:02:43.068Z,15.83
2018-07-07T06:05:11.636Z,16.13
2018-07-07T06:07:40.216Z,20.20
2018-07-07T06:10:08.903Z,17.23
2018-07-07T06:12:37.625Z,21.00
2018-07-07T06:15:06.726Z,17.47
2018-07-07T06:17:35.055Z,17.93
2018-07-07T06:20:04.232Z,13.80
2018-07-07T06:22:32.578Z,13.63
2018-07-07T06:25:00.877Z,15.43
2018-07-07T06:27:29.465Z,11.20
2018-07-07T06:29:57.914Z,12.40
2018-07-07T06:32:26.400Z,14.90
2018-07-07T06:34:54.924Z,11.50
2018-07-07T06:37:23.277Z,13.47
2018-07-07T06:39:51.649Z,14.33
2018-07-07T06:42:20.020Z,14.73
2018-07-07T06:44:48.421Z,16.30
2018-07-07T06:47:16.767Z,15.33
2018-07-07T06:49:45.353Z,17.03
2018-07-07T06:52:13.718Z,16.20
2018-07-07T06:54:42.156Z,17.13
2018-07-07T06:57:10.495Z,15.73
2018-07-07T06:59:38.959Z,16.13
2018-07-07T07:02:07.622Z,16.23
2018-07-07T07:04:38.912Z,17.37
2018-07-07T07:07:15.606Z,17.73
2018-07-07T07:12:28.731Z,15.57
2018-07-07T07:14:56.990Z,18.27
2018-07-07T07:17:25.335Z,19.27
2018-07-07T07:19:53.771Z,17.23
2018-07-07T07:22:26.145Z,18.60
2018-07-07T07:25:00.912Z,14.93
2018-07-07T07:27:30.376Z,20.50
2018-07-07T07:29:58.720Z,15.63
2018-07-07T07:32:27.203Z,17.27
2018-07-07T07:34:55.695Z,16.77
2018-07-07T07:37:24.111Z,16.33
2018-07-07T07:39:52.412Z,10.87
2018-07-07T07:42:20.797Z,12.63
2018-07-07T07:44:49.425Z,13.17
2018-07-07T07:47:17.940Z,13.33
2018-07-07T07:49:46.305Z,15.00
2018-07-07T07:52:14.647Z,13.27
2018-07-07T07:54:42.991Z,11.33
2018-07-07T07:57:11.349Z,13.10
2018-07-07T07:59:39.837Z,10.15
2018-07-07T08:02:08.155Z,13.78
2018-07-07T08:04:36.616Z,10.55
2018-07-07T08:07:04.999Z,16.48
2018-07-07T08:09:33.419Z,12.07
2018-07-07T08:12:01.838Z,11.57
2018-07-07T08:14:30.193Z,10.50
2018-07-07T08:16:58.578Z,11.57
2018-07-07T08:19:27.529Z,12.00
2018-07-07T08:21:55.832Z,11.90
2018-07-07T08:24:24.165Z,12.23
2018-07-07T08:26:52.754Z,13.65
2018-07-07T08:29:21.063Z,11.60
2018-07-07T08:31:49.578Z,11.33
2018-07-07T08:34:18.241Z,9.73
2018-07-07T08:36:46.891Z,11.48
2018-07-07T08:39:15.274Z,11.33
2018-07-07T08:41:44.289Z,8.75
2018-07-07T08:44:13.141Z,11.88
2018-07-07T08:46:42.096Z,9.13
2018-07-07T08:49:10.605Z,7.60
2018-07-07T08:51:38.856Z,10.82
2018-07-07T08:54:07.153Z,10.03
2018-07-07T08:56:35.465Z,10.28
2018-07-07T08:59:03.764Z,10.53
2018-07-07T09:01:32.075Z,10.18
2018-07-07T09:04:00.524Z,10.43
2018-07-07T09:06:28.925Z,10.08
2018-07-07T09:08:57.383Z,14.15
2018-07-07T09:11:25.797Z,12.07
2018-07-07T09:13:54.142Z,9.88
2018-07-07T09:16:24.871Z,12.03
2018-07-07T09:18:53.565Z,10.60
2018-07-07T09:21:23.258Z,14.15
2018-07-07T09:23:51.995Z,12.85
2018-07-07T09:26:38.306Z,11.93
2018-07-07T09:29:15.156Z,25.30
2018-07-07T09:31:54.298Z,11.00
2018-07-07T09:34:24.781Z,12.88
2018-07-07T09:36:56.331Z,12.55
2018-07-07T09:39:24.772Z,11.43
2018-07-07T09:41:53.905Z,11.65
2018-07-07T09:44:25.554Z,15.10
2018-07-07T09:46:54.442Z,10.15
2018-07-07T09:49:22.967Z,10.58
2018-07-07T09:51:51.368Z,10.43
2018-07-07T09:54:19.720Z,15.03
2018-07-07T09:56:48.747Z,8.75
2018-07-07T09:59:17.116Z,13.88
2018-07-07T10:01:45.509Z,12.88
2018-07-07T10:04:13.926Z,13.32
2018-07-07T10:06:42.258Z,12.95
2018-07-07T10:09:10.713Z,9.75
2018-07-07T10:11:39.110Z,13.15
2018-07-07T10:14:07.416Z,11.28
2018-07-07T10:16:35.717Z,10.38
2018-07-07T10:19:04.108Z,12.98
2018-07-07T10:21:36.834Z,10.78
2018-07-07T10:24:05.453Z,15.58
2018-07-07T10:26:33.689Z,9.63
2018-07-07T10:29:01.983Z,12.07
2018-07-07T10:31:30.522Z,8.93
2018-07-07T10:33:59.192Z,10.38
2018-07-07T10:36:27.554Z,10.23
2018-07-07T10:38:55.888Z,11.03
2018-07-07T10:41:24.229Z,19.27
2018-07-07T10:43:52.506Z,14.63
2018-07-07T10:46:20.806Z,10.78
2018-07-07T10:48:49.288Z,12.95
2018-07-07T10:51:17.568Z,12.78
2018-07-07T10:53:45.993Z,15.83
2018-07-07T10:56:14.325Z,10.65
2018-07-07T10:58:42.645Z,11.30
2018-07-07T11:01:11.083Z,15.13
2018-07-07T11:03:39.353Z,10.10
2018-07-07T11:06:07.757Z,13.58
2018-07-07T11:08:36.119Z,14.07
2018-07-07T11:11:04.517Z,11.25
2018-07-07T11:13:32.856Z,14.73
2018-07-07T11:16:01.325Z,12.88
2018-07-07T11:18:29.669Z,13.35
2018-07-07T11:20:57.941Z,10.35
2018-07-07T11:23:26.273Z,13.60
2018-07-07T11:25:54.876Z,15.93
2018-07-07T11:28:23.269Z,12.07
2018-07-07T11:30:51.846Z,11.12
2018-07-07T11:33:20.264Z,16.60
2018-07-07T11:35:48.522Z,10.82
2018-07-07T11:38:16.925Z,11.60
2018-07-07T11:40:45.277Z,9.60
2018-07-07T11:43:13.629Z,15.30
2018-07-07T11:45:41.989Z,8.98
2018-07-07T11:48:10.517Z,13.83
2018-07-07T11:50:38.936Z,10.78
2018-07-07T11:53:07.306Z,10.13
2018-07-07T11:55:35.601Z,14.87
2018-07-07T11:58:04.064Z,10.38
2018-07-07T12:00:46.865Z,8.03
2018-07-07T12:03:15.285Z,9.25
2018-07-07T12:05:43.745Z,9.83
2018-07-07T12:08:13.992Z,10.58
2018-07-07T12:10:40.628Z,10.05
2018-07-07T12:13:09.253Z,8.93
2018-07-07T12:24:16.173Z,8.98
2018-07-07T12:27:15.650Z,8.00
2018-07-07T12:29:44.494Z,8.23
2018-07-07T12:32:13.043Z,8.03
2018-07-07T12:34:41.443Z,8.53
2018-07-07T12:37:09.705Z,11.00
2018-07-07T12:39:38.702Z,11.20
2018-07-07T12:42:07.093Z,6.95
2018-07-07T12:44:35.421Z,7.55
2018-07-07T12:47:03.739Z,8.50
2018-07-07T12:49:32.120Z,8.05
2018-07-07T12:52:00.458Z,7.15
2018-07-07T12:54:28.793Z,9.10
2018-07-07T12:56:57.102Z,8.93
2018-07-07T12:59:25.399Z,9.33
2018-07-07T13:01:53.891Z,8.75
2018-07-07T13:04:22.262Z,8.93
2018-07-07T13:06:50.617Z,8.23
2018-07-07T13:09:18.984Z,8.10
2018-07-07T13:11:47.220Z,8.90
2018-07-07T13:14:15.651Z,7.92
2018-07-07T13:16:44.016Z,8.25
2018-07-07T13:19:12.546Z,7.12
2018-07-07T13:21:41.136Z,8.15
2018-07-07T13:24:11.194Z,7.60
2018-07-07T13:26:39.592Z,7.53
2018-07-07T13:29:07.881Z,6.62
2018-07-07T13:31:36.324Z,13.93
2018-07-07T13:34:04.736Z,6.67
2018-07-07T13:36:33.068Z,6.35
2018-07-07T13:39:01.322Z,7.60
2018-07-07T13:41:29.709Z,7.55
2018-07-07T13:43:58.057Z,7.33
2018-07-07T13:46:26.388Z,7.12
2018-07-07T13:48:54.705Z,6.70
2018-07-07T13:51:23.393Z,7.40
2018-07-07T13:53:51.739Z,8.38
2018-07-07T13:56:20.054Z,6.28
2018-07-07T13:58:48.294Z,7.17
2018-07-07T14:01:16.827Z,7.12
2018-07-07T14:03:45.353Z,7.00
2018-07-07T14:06:13.746Z,7.47
2018-07-07T14:08:42.189Z,9.70
2018-07-07T14:11:10.536Z,10.55
2018-07-07T14:13:38.881Z,7.58
2018-07-07T14:16:07.449Z,9.18
2018-07-07T14:18:35.820Z,7.42
2018-07-07T14:21:04.160Z,7.00
2018-07-07T14:23:32.669Z,7.72
2018-07-07T14:26:00.944Z,6.97
2018-07-07T14:28:29.245Z,6.33
2018-07-07T14:30:57.576Z,7.17
2018-07-07T14:33:25.877Z,7.35
2018-07-07T14:35:54.190Z,6.25
2018-07-07T14:38:30.561Z,7.03
2018-07-07T14:41:11.177Z,7.47
2018-07-07T14:43:53.896Z,6.70
2018-07-07T14:46:22.781Z,6.80
2018-07-07T14:48:51.337Z,8.48
2018-07-07T14:51:19.689Z,6.60
2018-07-07T14:53:48.251Z,10.13
2018-07-07T14:56:18.024Z,7.28
2018-07-07T14:58:46.541Z,8.73
2018-07-07T15:01:14.928Z,9.35
2018-07-07T15:03:43.741Z,7.15
2018-07-07T15:06:11.968Z,6.45
2018-07-07T15:08:40.400Z,6.05
2018-07-07T15:11:09.321Z,6.17
2018-07-07T15:13:38.264Z,8.23
2018-07-07T15:16:07.057Z,6.12
2018-07-07T15:18:35.875Z,5.67
2018-07-07T15:21:04.572Z,6.72
2018-07-07T15:23:33.036Z,6.03
2018-07-07T15:26:01.801Z,7.10
2018-07-07T15:28:30.183Z,6.15
2018-07-07T15:30:58.760Z,6.05
2018-07-07T15:33:27.119Z,8.95
2018-07-07T15:35:55.417Z,6.08
2018-07-07T15:38:23.771Z,6.30
2018-07-07T15:40:52.129Z,5.67
2018-07-07T15:43:20.421Z,7.35
2018-07-07T15:45:48.747Z,7.10
2018-07-07T15:48:17.394Z,12.65
2018-07-07T15:50:45.799Z,8.93
2018-07-07T15:53:14.191Z,9.33
2018-07-07T15:55:42.423Z,8.73
2018-07-07T15:58:10.802Z,8.25
2018-07-07T16:00:39.134Z,6.78
2018-07-07T16:03:07.449Z,6.37
2018-07-07T16:05:35.707Z,6.08
2018-07-07T16:08:04.135Z,6.08
2018-07-07T16:10:32.602Z,8.53
2018-07-07T16:13:00.924Z,6.45
2018-07-07T16:15:29.265Z,6.92
2018-07-07T16:17:57.605Z,7.33
2018-07-07T16:20:25.869Z,6.17
2018-07-07T16:22:54.255Z,6.60
2018-07-07T16:25:22.665Z,6.62
2018-07-07T16:27:51.029Z,6.37
2018-07-07T16:30:19.269Z,7.20
2018-07-07T16:32:47.601Z,6.72
2018-07-07T16:35:15.955Z,9.58
2018-07-07T16:37:44.360Z,7.55
2018-07-07T16:40:12.702Z,6.75
2018-07-07T16:42:42.428Z,6.87
2018-07-07T16:45:10.923Z,7.08
2018-07-07T16:47:39.364Z,7.72
2018-07-07T16:50:07.797Z,8.43
2018-07-07T16:52:36.221Z,6.58
2018-07-07T16:55:04.590Z,6.15
2018-07-07T16:57:32.996Z,6.85
2018-07-07T17:00:01.390Z,6.83
2018-07-07T17:02:30.294Z,5.80
2018-07-07T17:04:58.595Z,6.05
2018-07-07T17:07:27.122Z,7.30
2018-07-07T17:09:55.519Z,7.45
2018-07-07T17:12:24.253Z,6.00
2018-07-07T17:14:52.654Z,6.55
2018-07-07T17:17:21.872Z,6.40
2018-07-07T17:19:50.181Z,6.67
2018-07-07T17:22:18.614Z,8.50
2018-07-07T17:24:47.089Z,7.85
2018-07-07T17:27:16.028Z,6.53
2018-07-07T17:29:44.415Z,6.12
2018-07-07T17:32:12.737Z,6.97
2018-07-07T17:34:42.221Z,6.90
2018-07-07T17:37:10.602Z,6.72
2018-07-07T17:39:38.934Z,6.10
2018-07-07T17:42:07.888Z,5.83
2018-07-07T17:44:36.247Z,6.20
2018-07-07T17:47:04.598Z,7.30
2018-07-07T17:49:33.050Z,5.40
2018-07-07T17:52:01.436Z,5.45
2018-07-07T17:54:30.353Z,6.58
2018-07-07T17:56:59.100Z,6.05
2018-07-07T17:59:27.511Z,5.47
2018-07-07T18:01:55.879Z,5.47
2018-07-07T18:04:24.292Z,6.22
2018-07-07T18:06:52.860Z,7.92
2018-07-07T18:09:21.148Z,7.65
2018-07-07T18:11:49.987Z,11.15
2018-07-07T18:14:18.426Z,13.78
2018-07-07T18:16:51.934Z,8.60
2018-07-07T18:19:21.064Z,11.20
2018-07-07T18:21:50.159Z,9.70
2018-07-07T18:24:18.682Z,11.57
2018-07-07T18:26:47.769Z,10.05
2018-07-07T18:29:16.276Z,10.00
2018-07-07T18:31:44.633Z,10.50
2018-07-07T18:34:13.076Z,10.63
2018-07-07T18:36:41.373Z,13.70
2018-07-07T18:39:09.733Z,11.35
2018-07-07T18:41:38.801Z,12.85
2018-07-07T18:44:07.244Z,10.93
2018-07-07T18:46:35.761Z,10.45
2018-07-07T18:49:04.797Z,10.90
2018-07-07T18:51:33.318Z,11.55
2018-07-07T18:54:03.773Z,12.05
2018-07-07T18:56:33.110Z,14.85
2018-07-07T18:59:01.565Z,12.00
2018-07-07T19:01:29.939Z,13.10
2018-07-07T19:03:58.855Z,12.23
2018-07-07T19:06:27.164Z,12.88
2018-07-07T19:09:01.475Z,11.97
2018-07-07T19:11:29.846Z,10.93
2018-07-07T19:13:58.156Z,12.40
2018-07-07T19:16:26.679Z,13.83
2018-07-07T19:18:55.163Z,12.37
2018-07-07T19:23:32.045Z,12.20
2018-07-07T19:26:05.946Z,13.23
2018-07-07T19:28:34.259Z,13.97
2018-07-07T19:31:02.563Z,12.30
2018-07-07T19:33:36.124Z,11.97
2018-07-07T19:36:09.873Z,13.03
2018-07-07T19:38:38.725Z,12.47
2018-07-07T19:41:07.683Z,13.50
2018-07-07T19:43:38.419Z,12.53
2018-07-07T19:46:06.729Z,12.43
2018-07-07T19:48:35.181Z,13.90
2018-07-07T19:51:03.621Z,13.97
2018-07-07T19:53:32.177Z,14.33
2018-07-07T19:56:00.517Z,13.33
2018-07-07T19:58:28.884Z,14.00
2018-07-07T20:00:57.216Z,13.77
2018-07-07T20:03:25.587Z,15.83
2018-07-07T20:05:54.188Z,12.40
2018-07-07T20:08:22.481Z,16.13
2018-07-07T20:10:51.038Z,14.07
2018-07-07T20:13:19.534Z,12.27
2018-07-07T20:16:19.598Z,12.43
2018-07-07T20:19:23.047Z,12.17
2018-07-07T20:21:55.911Z,14.43
2018-07-07T20:24:40.158Z,12.87
2018-07-07T20:27:14.430Z,13.27
2018-07-07T20:29:43.196Z,14.57
2018-07-07T20:32:16.906Z,18.23
2018-07-07T20:34:45.273Z,21.07
2018-07-07T20:37:13.702Z,16.97
2018-07-07T20:39:42.148Z,19.07
2018-07-07T20:42:10.739Z,21.33
2018-07-07T20:44:39.104Z,16.07
2018-07-07T20:47:07.617Z,16.57
2018-07-07T20:49:35.947Z,16.17
2018-07-07T20:52:04.517Z,11.70
2018-07-07T20:54:33.325Z,12.50
2018-07-07T20:57:02.332Z,12.83
2018-07-07T20:59:31.467Z,14.43
2018-07-07T21:02:00.066Z,17.37
2018-07-07T21:04:28.319Z,14.77
2018-07-07T21:06:56.956Z,17.03
2018-07-07T21:09:25.313Z,14.50
2018-07-07T21:11:53.951Z,16.60
2018-07-07T21:14:22.499Z,17.93
2018-07-07T21:16:51.024Z,17.07
2018-07-07T21:19:19.505Z,18.53
2018-07-07T21:21:47.928Z,23.50
2018-07-07T21:24:16.456Z,17.97
2018-07-07T21:26:44.963Z,19.03
2018-07-07T21:29:13.445Z,21.10
2018-07-07T21:31:41.821Z,20.33
2018-07-07T21:34:10.125Z,20.33
2018-07-07T21:36:38.578Z,19.97
2018-07-07T21:39:07.130Z,20.60
2018-07-07T21:41:35.610Z,21.07
2018-07-07T21:44:04.097Z,19.47
2018-07-07T21:46:32.571Z,20.67
2018-07-07T21:49:00.987Z,20.00
2018-07-07T21:51:29.395Z,21.83
2018-07-07T21:53:57.887Z,20.27
2018-07-07T21:56:26.401Z,20.60
2018-07-07T21:59:00.107Z,20.57
2018-07-07T22:02:11.917Z,20.60
2018-07-07T22:04:45.518Z,23.07
2018-07-07T22:07:19.220Z,24.33
2018-07-07T22:09:47.730Z,21.90
2018-07-07T22:12:16.104Z,22.93
2018-07-07T22:14:44.582Z,22.50
2018-07-07T22:17:13.042Z,23.07
2018-07-07T22:19:41.529Z,22.10
2018-07-07T22:22:10.832Z,24.30
2018-07-07T22:24:40.128Z,24.80
2018-07-07T22:27:09.716Z,24.17
2018-07-07T22:29:38.320Z,24.43
2018-07-07T22:32:10.968Z,23.03
2018-07-07T22:34:40.142Z,23.93
2018-07-07T22:37:08.920Z,23.30
2018-07-07T22:39:39.493Z,25.87
2018-07-07T22:42:09.149Z,25.70
2018-07-07T22:44:38.241Z,23.60
2018-07-07T22:47:06.574Z,23.90
2018-07-07T22:49:35.091Z,24.27
2018-07-07T22:52:03.784Z,25.47
2018-07-07T22:54:32.072Z,25.30
2018-07-07T22:57:00.497Z,25.60
2018-07-07T22:59:28.994Z,27.30
2018-07-07T23:01:57.409Z,25.23
2018-07-07T23:04:25.723Z,25.60
2018-07-07T23:06:54.107Z,25.83
2018-07-07T23:09:22.601Z,27.30
2018-07-07T23:11:50.929Z,27.10
2018-07-07T23:14:19.210Z,25.73
2018-07-07T23:16:47.531Z,25.30
2018-07-07T23:19:15.979Z,27.17
2018-07-07T23:21:44.308Z,25.67
2018-07-07T23:24:12.661Z,18.40
2018-07-07T23:26:41.083Z,18.27
2018-07-07T23:29:09.397Z,16.97
2018-07-07T23:31:38.332Z,16.10
2018-07-07T23:34:06.692Z,18.70
2018-07-07T23:36:35.092Z,16.37
2018-07-07T23:39:03.997Z,16.73
2018-07-07T23:41:32.290Z,17.37
2018-07-07T23:44:00.625Z,16.47
2018-07-07T23:46:29.011Z,20.03
2018-07-07T23:48:57.448Z,23.73
2018-07-07T23:51:25.789Z,22.83
2018-07-07T23:53:54.133Z,23.60
2018-07-07T23:56:22.444Z,28.43
2018-07-07T23:58:50.980Z,29.40
